sensor_id;sensor_type;location;lat;lon;timestamp;pressure;altitude;pressure_sealevel;temperature;humidity
13604;BME280;24578;48.264;11.436;2023-11-18T00:03:51;96833.03;;;3.37;100.00
13604;BME280;24578;48.264;11.436;2023-11-18T00:09:53;96844.84;;;3.41;100.00
13604;BME280;24578;48.264;11.436;2023-11-18T00:15:54;96843.84;;;3.45;100.00
13604;BME280;24578;48.264;11.436;2023-11-18T00:21:56;96852.22;;;3.50;100.00
13604;BME280;24578;48.264;11.436;2023-11-18T00:27:58;96857.38;;;3.48;100.00
13604;BME280;24578;48.264;11.436;2023-11-18T00:33:59;96855.78;;;3.44;100.00
13604;BME280;24578;48.264;11.436;2023-11-18T00:40:01;96861.75;;;3.45;100.00
13604;BME280;24578;48.264;11.436;2023-11-18T00:46:06;96859.13;;;3.46;100.00
13604;BME280;24578;48.264;11.436;2023-11-18T00:52:11;96862.38;;;3.52;100.00
13604;BME280;24578;48.264;11.436;2023-11-18T00:58:16;96858.09;;;3.52;100.00
13604;BME280;24578;48.264;11.436;2023-11-18T01:04:17;96858.97;;;3.51;100.00
13604;BME280;24578;48.264;11.436;2023-11-18T01:10:19;96866.03;;;3.44;100.00
13604;BME280;24578;48.264;11.436;2023-11-18T01:16:21;96861.84;;;3.42;100.00
13604;BME280;24578;48.264;11.436;2023-11-18T01:22:22;96864.84;;;3.55;100.00
13604;BME280;24578;48.264;11.436;2023-11-18T01:28:25;96877.22;;;3.42;100.00
13604;BME280;24578;48.264;11.436;2023-11-18T01:34:27;96871.13;;;3.46;100.00
13604;BME280;24578;48.264;11.436;2023-11-18T01:40:29;96884.00;;;3.43;100.00
13604;BME280;24578;48.264;11.436;2023-11-18T01:46:32;96880.88;;;3.34;100.00
13604;BME280;24578;48.264;11.436;2023-11-18T01:52:35;96887.88;;;3.29;100.00
13604;BME280;24578;48.264;11.436;2023-11-18T01:58:37;96889.94;;;3.18;100.00
13604;BME280;24578;48.264;11.436;2023-11-18T02:04:39;96887.56;;;3.12;100.00
13604;BME280;24578;48.264;11.436;2023-11-18T02:17:22;96903.16;;;3.04;100.00
13604;BME280;24578;48.264;11.436;2023-11-18T02:23:26;96899.09;;;2.98;100.00
13604;BME280;24578;48.264;11.436;2023-11-18T02:29:34;96903.25;;;3.01;100.00
13604;BME280;24578;48.264;11.436;2023-11-18T02:36:05;96899.88;;;3.00;100.00
13604;BME280;24578;48.264;11.436;2023-11-18T02:42:07;96903.16;;;3.04;100.00
13604;BME280;24578;48.264;11.436;2023-11-18T02:48:10;96897.09;;;3.07;100.00
13604;BME280;24578;48.264;11.436;2023-11-18T02:54:11;96898.78;;;3.08;100.00
13604;BME280;24578;48.264;11.436;2023-11-18T03:00:13;96892.59;;;3.15;100.00
13604;BME280;24578;48.264;11.436;2023-11-18T03:06:23;96898.63;;;3.12;100.00
13604;BME280;24578;48.264;11.436;2023-11-18T03:12:25;96913.16;;;3.12;100.00
13604;BME280;24578;48.264;11.436;2023-11-18T03:18:29;96909.88;;;3.08;100.00
13604;BME280;24578;48.264;11.436;2023-11-18T03:24:31;96918.41;;;3.07;100.00
13604;BME280;24578;48.264;11.436;2023-11-18T03:30:33;96915.66;;;3.13;100.00
13604;BME280;24578;48.264;11.436;2023-11-18T03:36:35;96925.25;;;3.07;100.00
13604;BME280;24578;48.264;11.436;2023-11-18T03:42:37;96940.50;;;3.10;100.00
13604;BME280;24578;48.264;11.436;2023-11-18T03:48:39;96951.34;;;3.18;100.00
13604;BME280;24578;48.264;11.436;2023-11-18T03:54:41;96955.44;;;3.24;100.00
13604;BME280;24578;48.264;11.436;2023-11-18T04:00:43;96961.38;;;3.24;100.00
13604;BME280;24578;48.264;11.436;2023-11-18T04:06:44;96957.59;;;3.36;100.00
13604;BME280;24578;48.264;11.436;2023-11-18T04:12:48;96957.53;;;3.38;100.00
13604;BME280;24578;48.264;11.436;2023-11-18T04:18:51;96955.03;;;3.36;100.00
13604;BME280;24578;48.264;11.436;2023-11-18T04:24:53;96950.72;;;3.38;100.00
13604;BME280;24578;48.264;11.436;2023-11-18T04:30:54;96948.97;;;3.39;100.00
13604;BME280;24578;48.264;11.436;2023-11-18T04:36:57;96949.19;;;3.32;100.00
13604;BME280;24578;48.264;11.436;2023-11-18T04:42:59;96945.75;;;3.33;100.00
13604;BME280;24578;48.264;11.436;2023-11-18T04:49:02;96932.94;;;3.33;100.00
13604;BME280;24578;48.264;11.436;2023-11-18T04:55:04;96946.72;;;3.29;100.00
13604;BME280;24578;48.264;11.436;2023-11-18T05:01:07;96948.41;;;3.30;100.00
13604;BME280;24578;48.264;11.436;2023-11-18T05:07:10;96955.34;;;3.27;100.00
13604;BME280;24578;48.264;11.436;2023-11-18T05:13:13;96961.13;;;3.32;100.00
13604;BME280;24578;48.264;11.436;2023-11-18T05:19:17;96940.88;;;3.26;100.00
13604;BME280;24578;48.264;11.436;2023-11-18T05:25:20;96925.56;;;3.24;100.00
13604;BME280;24578;48.264;11.436;2023-11-18T05:31:23;96932.44;;;3.22;100.00
13604;BME280;24578;48.264;11.436;2023-11-18T05:37:24;96940.09;;;3.24;100.00
13604;BME280;24578;48.264;11.436;2023-11-18T05:43:28;96932.44;;;3.22;100.00
13604;BME280;24578;48.264;11.436;2023-11-18T05:49:31;96934.19;;;3.20;100.00
13604;BME280;24578;48.264;11.436;2023-11-18T05:55:32;96941.88;;;3.20;100.00
13604;BME280;24578;48.264;11.436;2023-11-18T06:01:34;96957.94;;;3.25;100.00
13604;BME280;24578;48.264;11.436;2023-11-18T06:07:36;96977.59;;;3.25;100.00
13604;BME280;24578;48.264;11.436;2023-11-18T06:13:40;96985.13;;;3.28;100.00
13604;BME280;24578;48.264;11.436;2023-11-18T06:19:48;96988.56;;;3.28;100.00
13604;BME280;24578;48.264;11.436;2023-11-18T06:25:51;96984.38;;;3.26;100.00
13604;BME280;24578;48.264;11.436;2023-11-18T06:31:55;96981.13;;;3.20;100.00
13604;BME280;24578;48.264;11.436;2023-11-18T06:37:56;96977.91;;;3.14;100.00
13604;BME280;24578;48.264;11.436;2023-11-18T06:44:00;96973.50;;;3.19;100.00
13604;BME280;24578;48.264;11.436;2023-11-18T06:50:04;96974.22;;;3.23;100.00
13604;BME280;24578;48.264;11.436;2023-11-18T06:56:10;96985.84;;;3.33;100.00
13604;BME280;24578;48.264;11.436;2023-11-18T07:02:18;96985.75;;;3.36;100.00
13604;BME280;24578;48.264;11.436;2023-11-18T07:08:25;96982.06;;;3.45;100.00
13604;BME280;24578;48.264;11.436;2023-11-18T07:14:26;96980.34;;;3.45;100.00
13604;BME280;24578;48.264;11.436;2023-11-18T07:20:29;96986.00;;;3.55;100.00
13604;BME280;24578;48.264;11.436;2023-11-18T07:26:33;96982.16;;;3.69;100.00
13604;BME280;24578;48.264;11.436;2023-11-18T07:32:35;96992.28;;;3.72;100.00
13604;BME280;24578;48.264;11.436;2023-11-18T07:38:37;96996.22;;;3.82;100.00
13604;BME280;24578;48.264;11.436;2023-11-18T07:44:39;97008.38;;;4.02;100.00
13604;BME280;24578;48.264;11.436;2023-11-18T07:50:41;97011.16;;;4.21;100.00
13604;BME280;24578;48.264;11.436;2023-11-18T07:56:43;97004.72;;;4.35;100.00
13604;BME280;24578;48.264;11.436;2023-11-18T08:02:47;97000.38;;;4.61;100.00
13604;BME280;24578;48.264;11.436;2023-11-18T08:08:50;97022.25;;;4.71;100.00
13604;BME280;24578;48.264;11.436;2023-11-18T08:14:53;97011.88;;;4.74;100.00
13604;BME280;24578;48.264;11.436;2023-11-18T08:20:54;97003.94;;;4.80;100.00
13604;BME280;24578;48.264;11.436;2023-11-18T08:26:56;97008.00;;;4.86;100.00
13604;BME280;24578;48.264;11.436;2023-11-18T08:32:58;97027.34;;;4.95;100.00
13604;BME280;24578;48.264;11.436;2023-11-18T08:39:01;97028.56;;;5.08;100.00
13604;BME280;24578;48.264;11.436;2023-11-18T08:45:03;97013.81;;;5.37;100.00
13604;BME280;24578;48.264;11.436;2023-11-18T08:51:07;96999.47;;;5.31;100.00
13604;BME280;24578;48.264;11.436;2023-11-18T08:57:11;97002.69;;;5.59;100.00
13604;BME280;24578;48.264;11.436;2023-11-18T09:03:26;96988.59;;;5.90;100.00
13604;BME280;24578;48.264;11.436;2023-11-18T09:09:38;96988.06;;;6.04;100.00
13604;BME280;24578;48.264;11.436;2023-11-18T09:15:41;96983.00;;;6.42;100.00
13604;BME280;24578;48.264;11.436;2023-11-18T09:21:44;96988.94;;;7.92;100.00
13604;BME280;24578;48.264;11.436;2023-11-18T09:27:46;96993.88;;;8.66;100.00
13604;BME280;24578;48.264;11.436;2023-11-18T09:33:48;96992.66;;;8.89;100.00
13604;BME280;24578;48.264;11.436;2023-11-18T09:40:07;96993.34;;;8.93;100.00
13604;BME280;24578;48.264;11.436;2023-11-18T09:46:31;96991.59;;;10.47;100.00
13604;BME280;24578;48.264;11.436;2023-11-18T09:52:42;96986.16;;;10.66;100.00
13604;BME280;24578;48.264;11.436;2023-11-18T09:58:54;96996.09;;;10.87;100.00
13604;BME280;24578;48.264;11.436;2023-11-18T10:05:01;96977.59;;;12.16;90.85
13604;BME280;24578;48.264;11.436;2023-11-18T10:11:13;96960.41;;;13.28;77.70
13604;BME280;24578;48.264;11.436;2023-11-18T10:17:16;96960.69;;;13.96;64.30
13604;BME280;24578;48.264;11.436;2023-11-18T10:23:21;96938.44;;;14.73;58.43
13604;BME280;24578;48.264;11.436;2023-11-18T10:29:26;96928.00;;;15.29;55.08
13604;BME280;24578;48.264;11.436;2023-11-18T10:35:32;96919.13;;;15.52;53.99
13604;BME280;24578;48.264;11.436;2023-11-18T10:41:40;96923.13;;;15.89;53.30
13604;BME280;24578;48.264;11.436;2023-11-18T10:47:45;96940.47;;;15.58;53.58
13604;BME280;24578;48.264;11.436;2023-11-18T10:53:51;96937.47;;;14.74;53.97
13604;BME280;24578;48.264;11.436;2023-11-18T11:00:06;96946.84;;;14.77;54.09
13604;BME280;24578;48.264;11.436;2023-11-18T11:06:22;96935.41;;;14.10;54.73
13604;BME280;24578;48.264;11.436;2023-11-18T11:12:25;96930.44;;;14.07;55.03
13604;BME280;24578;48.264;11.436;2023-11-18T11:18:30;96936.47;;;14.19;54.72
13604;BME280;24578;48.264;11.436;2023-11-18T11:31:38;96950.09;;;11.60;63.58
13604;BME280;24578;48.264;11.436;2023-11-18T11:37:45;96955.78;;;11.52;68.64
13604;BME280;24578;48.264;11.436;2023-11-18T11:43:49;96943.97;;;11.06;64.57
13604;BME280;24578;48.264;11.436;2023-11-18T11:50:10;96942.66;;;10.14;71.47
13604;BME280;24578;48.264;11.436;2023-11-18T11:56:15;96938.78;;;9.45;81.85
13604;BME280;24578;48.264;11.436;2023-11-18T12:02:27;96924.00;;;9.64;86.88
13604;BME280;24578;48.264;11.436;2023-11-18T12:08:51;96923.50;;;9.87;82.77
13604;BME280;24578;48.264;11.436;2023-11-18T12:14:55;96912.88;;;10.06;80.39
13604;BME280;24578;48.264;11.436;2023-11-18T12:27:56;96908.72;;;9.89;84.76
13604;BME280;24578;48.264;11.436;2023-11-18T12:34:01;96888.28;;;9.70;84.33
13604;BME280;24578;48.264;11.436;2023-11-18T12:52:40;96862.63;;;9.37;81.06
13604;BME280;24578;48.264;11.436;2023-11-18T12:58:43;96863.00;;;9.31;89.56
13604;BME280;24578;48.264;11.436;2023-11-18T13:04:46;96871.53;;;9.47;85.56
13604;BME280;24578;48.264;11.436;2023-11-18T13:10:51;96844.03;;;9.46;81.89
13604;BME280;24578;48.264;11.436;2023-11-18T13:16:54;96843.03;;;9.18;85.96
13604;BME280;24578;48.264;11.436;2023-11-18T13:22:58;96843.75;;;8.74;90.71
13604;BME280;24578;48.264;11.436;2023-11-18T13:29:03;96827.44;;;8.41;96.63
13604;BME280;24578;48.264;11.436;2023-11-18T13:35:05;96829.06;;;8.26;98.76
13604;BME280;24578;48.264;11.436;2023-11-18T13:41:08;96825.97;;;8.03;96.07
13604;BME280;24578;48.264;11.436;2023-11-18T13:47:11;96815.63;;;7.87;86.33
13604;BME280;24578;48.264;11.436;2023-11-18T13:53:13;96826.28;;;7.81;87.50
13604;BME280;24578;48.264;11.436;2023-11-18T13:59:15;96832.75;;;7.88;90.13
13604;BME280;24578;48.264;11.436;2023-11-18T14:05:17;96813.59;;;8.10;89.98
13604;BME280;24578;48.264;11.436;2023-11-18T14:11:20;96814.38;;;8.44;83.58
13604;BME280;24578;48.264;11.436;2023-11-18T14:17:23;96809.59;;;8.20;83.87
13604;BME280;24578;48.264;11.436;2023-11-18T14:23:28;96811.25;;;8.05;86.12
13604;BME280;24578;48.264;11.436;2023-11-18T14:29:33;96799.84;;;7.93;84.97
13604;BME280;24578;48.264;11.436;2023-11-18T14:35:35;96787.13;;;7.57;90.00
13604;BME280;24578;48.264;11.436;2023-11-18T14:41:36;96783.00;;;7.19;93.86
13604;BME280;24578;48.264;11.436;2023-11-18T14:47:39;96810.41;;;6.85;100.00
13604;BME280;24578;48.264;11.436;2023-11-18T14:53:44;96792.88;;;6.57;100.00
13604;BME280;24578;48.264;11.436;2023-11-18T14:59:46;96779.78;;;6.44;100.00
13604;BME280;24578;48.264;11.436;2023-11-18T15:05:48;96769.63;;;6.40;100.00
13604;BME280;24578;48.264;11.436;2023-11-18T15:11:50;96777.47;;;6.37;100.00
13604;BME280;24578;48.264;11.436;2023-11-18T15:17:54;96766.66;;;6.31;100.00
13604;BME280;24578;48.264;11.436;2023-11-18T15:23:56;96731.22;;;6.18;100.00
13604;BME280;24578;48.264;11.436;2023-11-18T15:30:04;96728.72;;;6.17;100.00
13604;BME280;24578;48.264;11.436;2023-11-18T15:36:07;96728.16;;;6.10;100.00
13604;BME280;24578;48.264;11.436;2023-11-18T15:42:09;96700.19;;;6.04;100.00
13604;BME280;24578;48.264;11.436;2023-11-18T15:48:12;96694.06;;;6.06;100.00
13604;BME280;24578;48.264;11.436;2023-11-18T15:54:16;96718.25;;;6.02;100.00
13604;BME280;24578;48.264;11.436;2023-11-18T16:00:22;96719.78;;;6.06;100.00
13604;BME280;24578;48.264;11.436;2023-11-18T16:06:26;96723.22;;;5.86;100.00
13604;BME280;24578;48.264;11.436;2023-11-18T16:12:28;96725.38;;;5.76;100.00
13604;BME280;24578;48.264;11.436;2023-11-18T16:18:30;96713.31;;;5.78;100.00
13604;BME280;24578;48.264;11.436;2023-11-18T16:24:32;96697.34;;;5.72;100.00
13604;BME280;24578;48.264;11.436;2023-11-18T16:30:34;96687.41;;;5.64;100.00
13604;BME280;24578;48.264;11.436;2023-11-18T16:36:35;96700.50;;;5.58;100.00
13604;BME280;24578;48.264;11.436;2023-11-18T16:42:45;96692.00;;;5.57;100.00
13604;BME280;24578;48.264;11.436;2023-11-18T16:48:46;96694.59;;;5.56;100.00
13604;BME280;24578;48.264;11.436;2023-11-18T16:54:48;96692.91;;;5.56;100.00
13604;BME280;24578;48.264;11.436;2023-11-18T17:00:50;96715.03;;;5.59;100.00
13604;BME280;24578;48.264;11.436;2023-11-18T17:06:53;96722.84;;;5.56;100.00
13604;BME280;24578;48.264;11.436;2023-11-18T17:12:54;96727.31;;;5.52;100.00
13604;BME280;24578;48.264;11.436;2023-11-18T17:18:58;96730.09;;;5.47;100.00
13604;BME280;24578;48.264;11.436;2023-11-18T17:25:00;96729.22;;;5.47;100.00
13604;BME280;24578;48.264;11.436;2023-11-18T17:31:02;96720.50;;;5.51;100.00
13604;BME280;24578;48.264;11.436;2023-11-18T17:37:11;96716.06;;;5.55;100.00
13604;BME280;24578;48.264;11.436;2023-11-18T17:43:13;96709.34;;;5.52;100.00
13604;BME280;24578;48.264;11.436;2023-11-18T17:49:14;96712.59;;;5.56;100.00
13604;BME280;24578;48.264;11.436;2023-11-18T17:55:16;96713.66;;;5.52;100.00
13604;BME280;24578;48.264;11.436;2023-11-18T18:01:18;96712.75;;;5.53;100.00
13604;BME280;24578;48.264;11.436;2023-11-18T18:07:22;96707.44;;;5.56;100.00
13604;BME280;24578;48.264;11.436;2023-11-18T18:13:25;96704.13;;;5.54;100.00
13604;BME280;24578;48.264;11.436;2023-11-18T18:19:27;96688.09;;;5.48;100.00
13604;BME280;24578;48.264;11.436;2023-11-18T18:25:28;96676.56;;;5.38;100.00
13604;BME280;24578;48.264;11.436;2023-11-18T18:31:30;96674.53;;;5.26;100.00
13604;BME280;24578;48.264;11.436;2023-11-18T18:37:32;96666.88;;;5.45;100.00
13604;BME280;24578;48.264;11.436;2023-11-18T18:43:35;96671.63;;;5.33;100.00
13604;BME280;24578;48.264;11.436;2023-11-18T18:49:36;96658.25;;;5.46;100.00
13604;BME280;24578;48.264;11.436;2023-11-18T18:55:38;96641.25;;;5.24;100.00
13604;BME280;24578;48.264;11.436;2023-11-18T19:01:41;96652.28;;;5.26;100.00
13604;BME280;24578;48.264;11.436;2023-11-18T19:07:46;96646.13;;;5.49;100.00
13604;BME280;24578;48.264;11.436;2023-11-18T19:13:48;96634.53;;;5.41;100.00
13604;BME280;24578;48.264;11.436;2023-11-18T19:19:50;96621.56;;;5.44;100.00
13604;BME280;24578;48.264;11.436;2023-11-18T19:25:52;96599.41;;;5.41;100.00
13604;BME280;24578;48.264;11.436;2023-11-18T19:31:54;96587.47;;;5.40;100.00
13604;BME280;24578;48.264;11.436;2023-11-18T19:37:58;96558.06;;;5.28;100.00
13604;BME280;24578;48.264;11.436;2023-11-18T19:44:02;96556.69;;;5.02;100.00
13604;BME280;24578;48.264;11.436;2023-11-18T19:50:06;96551.03;;;4.94;100.00
13604;BME280;24578;48.264;11.436;2023-11-18T19:56:10;96556.59;;;4.84;100.00
13604;BME280;24578;48.264;11.436;2023-11-18T20:02:12;96565.97;;;5.05;100.00
13604;BME280;24578;48.264;11.436;2023-11-18T20:08:13;96578.44;;;4.74;100.00
13604;BME280;24578;48.264;11.436;2023-11-18T20:14:15;96564.72;;;4.34;100.00
13604;BME280;24578;48.264;11.436;2023-11-18T20:20:17;96539.09;;;4.13;100.00
13604;BME280;24578;48.264;11.436;2023-11-18T20:26:19;96525.00;;;4.03;100.00
13604;BME280;24578;48.264;11.436;2023-11-18T20:32:20;96488.25;;;3.83;100.00
13604;BME280;24578;48.264;11.436;2023-11-18T20:38:22;96482.22;;;3.84;100.00
13604;BME280;24578;48.264;11.436;2023-11-18T20:44:24;96455.31;;;3.53;100.00
13604;BME280;24578;48.264;11.436;2023-11-18T20:50:28;96455.69;;;3.44;100.00
13604;BME280;24578;48.264;11.436;2023-11-18T20:56:30;96464.81;;;3.29;100.00
13604;BME280;24578;48.264;11.436;2023-11-18T21:02:36;96448.53;;;3.31;100.00
13604;BME280;24578;48.264;11.436;2023-11-18T21:08:38;96412.88;;;3.27;100.00
13604;BME280;24578;48.264;11.436;2023-11-18T21:14:40;96394.31;;;3.22;100.00
13604;BME280;24578;48.264;11.436;2023-11-18T21:20:42;96378.44;;;3.13;100.00
13604;BME280;24578;48.264;11.436;2023-11-18T21:26:43;96364.94;;;3.10;100.00
13604;BME280;24578;48.264;11.436;2023-11-18T21:32:46;96332.91;;;3.22;100.00
13604;BME280;24578;48.264;11.436;2023-11-18T21:38:49;96322.31;;;3.10;100.00
13604;BME280;24578;48.264;11.436;2023-11-18T21:44:54;96310.91;;;3.17;100.00
13604;BME280;24578;48.264;11.436;2023-11-18T21:50:55;96302.09;;;3.25;100.00
13604;BME280;24578;48.264;11.436;2023-11-18T21:56:57;96306.50;;;3.21;100.00
13604;BME280;24578;48.264;11.436;2023-11-18T22:02:59;96316.78;;;3.19;100.00
13604;BME280;24578;48.264;11.436;2023-11-18T22:09:06;96322.59;;;3.23;100.00
13604;BME280;24578;48.264;11.436;2023-11-18T22:15:08;96318.06;;;3.30;100.00
13604;BME280;24578;48.264;11.436;2023-11-18T22:21:10;96327.47;;;3.29;100.00
13604;BME280;24578;48.264;11.436;2023-11-18T22:27:12;96325.03;;;3.26;100.00
13604;BME280;24578;48.264;11.436;2023-11-18T22:33:15;96327.84;;;3.41;100.00
13604;BME280;24578;48.264;11.436;2023-11-18T22:39:26;96300.13;;;3.31;100.00
13604;BME280;24578;48.264;11.436;2023-11-18T22:45:30;96299.22;;;3.32;100.00
13604;BME280;24578;48.264;11.436;2023-11-18T22:51:32;96292.31;;;3.34;100.00
13604;BME280;24578;48.264;11.436;2023-11-18T22:57:35;96274.31;;;3.36;100.00
13604;BME280;24578;48.264;11.436;2023-11-18T23:03:37;96268.09;;;3.42;100.00
13604;BME280;24578;48.264;11.436;2023-11-18T23:09:39;96267.34;;;3.40;100.00
13604;BME280;24578;48.264;11.436;2023-11-18T23:15:41;96259.31;;;3.47;100.00
13604;BME280;24578;48.264;11.436;2023-11-18T23:21:42;96238.03;;;3.47;100.00
13604;BME280;24578;48.264;11.436;2023-11-18T23:27:48;96246.94;;;3.38;100.00
13604;BME280;24578;48.264;11.436;2023-11-18T23:34:00;96235.16;;;3.34;100.00
13604;BME280;24578;48.264;11.436;2023-11-18T23:40:05;96230.47;;;3.44;100.00
13604;BME280;24578;48.264;11.436;2023-11-18T23:46:11;96230.47;;;3.44;100.00
13604;BME280;24578;48.264;11.436;2023-11-18T23:52:15;96231.84;;;3.51;100.00
13604;BME280;24578;48.264;11.436;2023-11-18T23:58:17;96217.06;;;3.39;100.00
